sensor_id;sensor_type;location;lat;lon;timestamp;P1;durP1;ratioP1;P2;durP2;ratioP2
18435;SDS011;9346;52.006;4.720;2024-03-17T00:01:37;16.60;;;3.53;;
18435;SDS011;9346;52.006;4.720;2024-03-17T00:04:03;5.30;;;3.53;;
18435;SDS011;9346;52.006;4.720;2024-03-17T00:06:31;8.20;;;4.17;;
18435;SDS011;9346;52.006;4.720;2024-03-17T00:08:58;11.63;;;3.83;;
18435;SDS011;9346;52.006;4.720;2024-03-17T00:11:26;6.57;;;3.87;;
18435;SDS011;9346;52.006;4.720;2024-03-17T00:13:51;6.63;;;3.43;;
18435;SDS011;9346;52.006;4.720;2024-03-17T00:16:18;9.83;;;4.30;;
18435;SDS011;9346;52.006;4.720;2024-03-17T00:18:44;8.10;;;3.47;;
18435;SDS011;9346;52.006;4.720;2024-03-17T00:21:11;12.33;;;3.53;;
18435;SDS011;9346;52.006;4.720;2024-03-17T00:23:38;7.83;;;3.63;;
18435;SDS011;9346;52.006;4.720;2024-03-17T00:26:05;11.63;;;4.07;;
18435;SDS011;9346;52.006;4.720;2024-03-17T00:28:31;7.00;;;3.93;;
18435;SDS011;9346;52.006;4.720;2024-03-17T00:30:58;11.40;;;3.93;;
18435;SDS011;9346;52.006;4.720;2024-03-17T00:33:24;11.17;;;3.77;;
18435;SDS011;9346;52.006;4.720;2024-03-17T00:35:51;9.33;;;4.20;;
18435;SDS011;9346;52.006;4.720;2024-03-17T00:38:16;5.43;;;3.37;;
18435;SDS011;9346;52.006;4.720;2024-03-17T00:40:44;6.53;;;3.70;;
18435;SDS011;9346;52.006;4.720;2024-03-17T00:43:10;10.70;;;4.00;;
18435;SDS011;9346;52.006;4.720;2024-03-17T00:45:37;6.80;;;3.60;;
18435;SDS011;9346;52.006;4.720;2024-03-17T00:48:03;8.40;;;4.27;;
18435;SDS011;9346;52.006;4.720;2024-03-17T00:50:31;6.60;;;3.60;;
18435;SDS011;9346;52.006;4.720;2024-03-17T00:52:57;7.77;;;3.70;;
18435;SDS011;9346;52.006;4.720;2024-03-17T00:55:23;6.37;;;3.93;;
18435;SDS011;9346;52.006;4.720;2024-03-17T00:57:50;8.77;;;3.97;;
18435;SDS011;9346;52.006;4.720;2024-03-17T01:00:18;14.10;;;3.47;;
18435;SDS011;9346;52.006;4.720;2024-03-17T01:02:43;6.97;;;4.13;;
18435;SDS011;9346;52.006;4.720;2024-03-17T01:05:11;7.10;;;3.80;;
18435;SDS011;9346;52.006;4.720;2024-03-17T01:07:37;6.17;;;3.40;;
18435;SDS011;9346;52.006;4.720;2024-03-17T01:10:03;5.10;;;3.07;;
18435;SDS011;9346;52.006;4.720;2024-03-17T01:12:33;10.90;;;4.30;;
18435;SDS011;9346;52.006;4.720;2024-03-17T01:15:02;7.30;;;3.13;;
18435;SDS011;9346;52.006;4.720;2024-03-17T01:17:29;8.37;;;4.40;;
18435;SDS011;9346;52.006;4.720;2024-03-17T01:19:55;10.20;;;4.20;;
18435;SDS011;9346;52.006;4.720;2024-03-17T01:22:21;9.13;;;4.03;;
18435;SDS011;9346;52.006;4.720;2024-03-17T01:24:48;14.83;;;4.30;;
18435;SDS011;9346;52.006;4.720;2024-03-17T01:27:13;11.47;;;4.03;;
18435;SDS011;9346;52.006;4.720;2024-03-17T01:29:41;12.10;;;3.77;;
18435;SDS011;9346;52.006;4.720;2024-03-17T01:32:08;7.07;;;3.40;;
18435;SDS011;9346;52.006;4.720;2024-03-17T01:34:36;5.30;;;3.30;;
18435;SDS011;9346;52.006;4.720;2024-03-17T01:37:01;13.40;;;4.77;;
18435;SDS011;9346;52.006;4.720;2024-03-17T01:39:29;7.37;;;4.23;;
18435;SDS011;9346;52.006;4.720;2024-03-17T01:41:55;9.67;;;3.47;;
18435;SDS011;9346;52.006;4.720;2024-03-17T01:44:23;13.67;;;3.80;;
18435;SDS011;9346;52.006;4.720;2024-03-17T01:46:50;10.10;;;4.57;;
18435;SDS011;9346;52.006;4.720;2024-03-17T01:49:18;10.87;;;4.83;;
18435;SDS011;9346;52.006;4.720;2024-03-17T01:51:44;6.43;;;4.10;;
18435;SDS011;9346;52.006;4.720;2024-03-17T01:54:13;8.07;;;4.23;;
18435;SDS011;9346;52.006;4.720;2024-03-17T01:56:39;11.70;;;4.97;;
18435;SDS011;9346;52.006;4.720;2024-03-17T01:59:07;8.43;;;4.63;;
18435;SDS011;9346;52.006;4.720;2024-03-17T02:01:34;6.50;;;3.93;;
18435;SDS011;9346;52.006;4.720;2024-03-17T02:04:01;5.73;;;4.17;;
18435;SDS011;9346;52.006;4.720;2024-03-17T02:06:29;7.63;;;4.33;;
18435;SDS011;9346;52.006;4.720;2024-03-17T02:08:55;10.60;;;4.20;;
18435;SDS011;9346;52.006;4.720;2024-03-17T02:11:23;7.77;;;4.40;;
18435;SDS011;9346;52.006;4.720;2024-03-17T02:13:51;9.77;;;4.60;;
18435;SDS011;9346;52.006;4.720;2024-03-17T02:16:17;6.77;;;4.03;;
18435;SDS011;9346;52.006;4.720;2024-03-17T02:18:44;9.23;;;4.60;;
18435;SDS011;9346;52.006;4.720;2024-03-17T02:21:10;10.10;;;4.73;;
18435;SDS011;9346;52.006;4.720;2024-03-17T02:23:39;11.67;;;4.70;;
18435;SDS011;9346;52.006;4.720;2024-03-17T02:26:05;12.33;;;4.73;;
18435;SDS011;9346;52.006;4.720;2024-03-17T02:28:37;11.23;;;4.90;;
18435;SDS011;9346;52.006;4.720;2024-03-17T02:31:04;10.70;;;5.63;;
18435;SDS011;9346;52.006;4.720;2024-03-17T02:33:31;6.40;;;4.47;;
18435;SDS011;9346;52.006;4.720;2024-03-17T02:35:56;9.50;;;4.63;;
18435;SDS011;9346;52.006;4.720;2024-03-17T02:38:24;9.33;;;4.63;;
18435;SDS011;9346;52.006;4.720;2024-03-17T02:41:06;9.80;;;4.67;;
18435;SDS011;9346;52.006;4.720;2024-03-17T02:43:34;8.17;;;5.13;;
18435;SDS011;9346;52.006;4.720;2024-03-17T02:46:01;8.63;;;4.93;;
18435;SDS011;9346;52.006;4.720;2024-03-17T02:48:29;10.47;;;5.07;;
18435;SDS011;9346;52.006;4.720;2024-03-17T02:50:56;10.90;;;4.67;;
18435;SDS011;9346;52.006;4.720;2024-03-17T02:53:23;11.17;;;5.10;;
18435;SDS011;9346;52.006;4.720;2024-03-17T02:55:49;10.50;;;5.80;;
18435;SDS011;9346;52.006;4.720;2024-03-17T02:58:18;12.07;;;5.23;;
18435;SDS011;9346;52.006;4.720;2024-03-17T03:00:44;15.10;;;5.40;;
18435;SDS011;9346;52.006;4.720;2024-03-17T03:03:11;10.43;;;4.87;;
18435;SDS011;9346;52.006;4.720;2024-03-17T03:05:38;7.47;;;4.63;;
18435;SDS011;9346;52.006;4.720;2024-03-17T03:08:05;14.30;;;6.00;;
18435;SDS011;9346;52.006;4.720;2024-03-17T03:10:32;10.57;;;5.77;;
18435;SDS011;9346;52.006;4.720;2024-03-17T03:13:00;8.83;;;5.57;;
18435;SDS011;9346;52.006;4.720;2024-03-17T03:15:29;9.13;;;5.73;;
18435;SDS011;9346;52.006;4.720;2024-03-17T03:17:57;13.50;;;6.27;;
18435;SDS011;9346;52.006;4.720;2024-03-17T03:20:24;10.07;;;5.80;;
18435;SDS011;9346;52.006;4.720;2024-03-17T03:22:53;10.73;;;5.03;;
18435;SDS011;9346;52.006;4.720;2024-03-17T03:25:19;9.90;;;5.20;;
18435;SDS011;9346;52.006;4.720;2024-03-17T03:27:46;9.43;;;5.73;;
18435;SDS011;9346;52.006;4.720;2024-03-17T03:30:13;18.60;;;6.30;;
18435;SDS011;9346;52.006;4.720;2024-03-17T03:32:42;8.20;;;5.07;;
18435;SDS011;9346;52.006;4.720;2024-03-17T03:35:08;11.97;;;5.53;;
18435;SDS011;9346;52.006;4.720;2024-03-17T03:37:36;10.17;;;5.83;;
18435;SDS011;9346;52.006;4.720;2024-03-17T03:40:03;8.77;;;5.50;;
18435;SDS011;9346;52.006;4.720;2024-03-17T03:42:41;14.47;;;5.03;;
18435;SDS011;9346;52.006;4.720;2024-03-17T03:45:08;10.27;;;5.20;;
18435;SDS011;9346;52.006;4.720;2024-03-17T03:47:34;15.20;;;6.20;;
18435;SDS011;9346;52.006;4.720;2024-03-17T03:50:03;8.60;;;5.20;;
18435;SDS011;9346;52.006;4.720;2024-03-17T03:52:30;9.77;;;6.03;;
18435;SDS011;9346;52.006;4.720;2024-03-17T03:54:56;13.27;;;5.70;;
18435;SDS011;9346;52.006;4.720;2024-03-17T03:57:24;10.07;;;5.30;;
18435;SDS011;9346;52.006;4.720;2024-03-17T03:59:54;10.07;;;5.80;;
18435;SDS011;9346;52.006;4.720;2024-03-17T04:02:21;8.10;;;4.33;;
18435;SDS011;9346;52.006;4.720;2024-03-17T04:04:48;8.90;;;5.40;;
18435;SDS011;9346;52.006;4.720;2024-03-17T04:07:16;9.20;;;5.57;;
18435;SDS011;9346;52.006;4.720;2024-03-17T04:09:43;9.07;;;4.93;;
18435;SDS011;9346;52.006;4.720;2024-03-17T04:12:09;9.30;;;5.10;;
18435;SDS011;9346;52.006;4.720;2024-03-17T04:14:37;10.57;;;5.03;;
18435;SDS011;9346;52.006;4.720;2024-03-17T04:17:04;9.83;;;5.33;;
18435;SDS011;9346;52.006;4.720;2024-03-17T04:19:31;10.07;;;5.63;;
18435;SDS011;9346;52.006;4.720;2024-03-17T04:21:57;9.80;;;5.80;;
18435;SDS011;9346;52.006;4.720;2024-03-17T04:24:26;9.00;;;5.13;;
18435;SDS011;9346;52.006;4.720;2024-03-17T04:26:52;10.87;;;5.57;;
18435;SDS011;9346;52.006;4.720;2024-03-17T04:29:19;8.70;;;5.10;;
18435;SDS011;9346;52.006;4.720;2024-03-17T04:31:46;8.07;;;5.77;;
18435;SDS011;9346;52.006;4.720;2024-03-17T04:34:13;10.10;;;5.13;;
18435;SDS011;9346;52.006;4.720;2024-03-17T04:36:41;11.80;;;5.77;;
18435;SDS011;9346;52.006;4.720;2024-03-17T04:39:08;8.23;;;5.57;;
18435;SDS011;9346;52.006;4.720;2024-03-17T04:41:36;11.47;;;6.73;;
18435;SDS011;9346;52.006;4.720;2024-03-17T04:44:05;13.00;;;6.37;;
18435;SDS011;9346;52.006;4.720;2024-03-17T04:46:32;12.03;;;5.40;;
18435;SDS011;9346;52.006;4.720;2024-03-17T04:48:59;9.43;;;5.27;;
18435;SDS011;9346;52.006;4.720;2024-03-17T04:51:28;12.20;;;5.20;;
18435;SDS011;9346;52.006;4.720;2024-03-17T04:53:55;9.03;;;5.17;;
18435;SDS011;9346;52.006;4.720;2024-03-17T04:56:21;7.20;;;5.30;;
18435;SDS011;9346;52.006;4.720;2024-03-17T04:58:50;12.10;;;5.13;;
18435;SDS011;9346;52.006;4.720;2024-03-17T05:01:17;10.30;;;5.70;;
18435;SDS011;9346;52.006;4.720;2024-03-17T05:03:43;11.47;;;5.53;;
18435;SDS011;9346;52.006;4.720;2024-03-17T05:06:10;9.83;;;6.03;;
18435;SDS011;9346;52.006;4.720;2024-03-17T05:08:37;9.57;;;5.33;;
18435;SDS011;9346;52.006;4.720;2024-03-17T05:11:04;9.30;;;5.33;;
18435;SDS011;9346;52.006;4.720;2024-03-17T05:13:32;7.87;;;4.97;;
18435;SDS011;9346;52.006;4.720;2024-03-17T05:16:01;10.03;;;5.17;;
18435;SDS011;9346;52.006;4.720;2024-03-17T05:18:28;11.90;;;5.27;;
18435;SDS011;9346;52.006;4.720;2024-03-17T05:20:58;10.10;;;5.73;;
18435;SDS011;9346;52.006;4.720;2024-03-17T05:23:26;9.73;;;6.10;;
18435;SDS011;9346;52.006;4.720;2024-03-17T05:25:53;7.93;;;4.40;;
18435;SDS011;9346;52.006;4.720;2024-03-17T05:28:20;10.67;;;6.27;;
18435;SDS011;9346;52.006;4.720;2024-03-17T05:30:47;9.00;;;4.90;;
18435;SDS011;9346;52.006;4.720;2024-03-17T05:33:17;12.77;;;5.73;;
18435;SDS011;9346;52.006;4.720;2024-03-17T05:35:49;12.37;;;4.70;;
18435;SDS011;9346;52.006;4.720;2024-03-17T05:38:17;8.40;;;5.33;;
18435;SDS011;9346;52.006;4.720;2024-03-17T05:40:51;13.30;;;5.47;;
18435;SDS011;9346;52.006;4.720;2024-03-17T05:43:19;11.00;;;5.50;;
18435;SDS011;9346;52.006;4.720;2024-03-17T05:45:46;13.27;;;6.37;;
18435;SDS011;9346;52.006;4.720;2024-03-17T05:48:12;8.83;;;5.07;;
18435;SDS011;9346;52.006;4.720;2024-03-17T05:50:41;11.23;;;5.93;;
18435;SDS011;9346;52.006;4.720;2024-03-17T05:53:07;8.97;;;5.10;;
18435;SDS011;9346;52.006;4.720;2024-03-17T05:55:34;13.03;;;5.83;;
18435;SDS011;9346;52.006;4.720;2024-03-17T05:58:01;13.47;;;6.23;;
18435;SDS011;9346;52.006;4.720;2024-03-17T06:00:28;9.03;;;5.47;;
18435;SDS011;9346;52.006;4.720;2024-03-17T06:02:55;11.67;;;6.10;;
18435;SDS011;9346;52.006;4.720;2024-03-17T06:05:22;10.87;;;6.47;;
18435;SDS011;9346;52.006;4.720;2024-03-17T06:07:51;14.30;;;5.27;;
18435;SDS011;9346;52.006;4.720;2024-03-17T06:10:18;14.30;;;6.63;;
18435;SDS011;9346;52.006;4.720;2024-03-17T06:12:49;11.33;;;6.60;;
18435;SDS011;9346;52.006;4.720;2024-03-17T06:15:16;12.83;;;5.97;;
18435;SDS011;9346;52.006;4.720;2024-03-17T06:17:42;14.70;;;6.40;;
18435;SDS011;9346;52.006;4.720;2024-03-17T06:20:09;9.53;;;5.90;;
18435;SDS011;9346;52.006;4.720;2024-03-17T06:22:38;12.53;;;6.37;;
18435;SDS011;9346;52.006;4.720;2024-03-17T06:25:07;10.10;;;5.10;;
18435;SDS011;9346;52.006;4.720;2024-03-17T06:27:34;13.57;;;6.20;;
18435;SDS011;9346;52.006;4.720;2024-03-17T06:30:01;9.97;;;5.40;;
18435;SDS011;9346;52.006;4.720;2024-03-17T06:32:29;12.40;;;7.17;;
18435;SDS011;9346;52.006;4.720;2024-03-17T06:34:56;10.03;;;6.27;;
18435;SDS011;9346;52.006;4.720;2024-03-17T06:37:23;9.17;;;5.53;;
18435;SDS011;9346;52.006;4.720;2024-03-17T06:39:50;18.33;;;6.40;;
18435;SDS011;9346;52.006;4.720;2024-03-17T06:42:18;14.63;;;5.80;;
18435;SDS011;9346;52.006;4.720;2024-03-17T06:44:45;12.23;;;6.27;;
18435;SDS011;9346;52.006;4.720;2024-03-17T06:47:11;10.87;;;6.50;;
18435;SDS011;9346;52.006;4.720;2024-03-17T06:49:38;16.73;;;6.27;;
18435;SDS011;9346;52.006;4.720;2024-03-17T06:52:05;10.90;;;5.37;;
18435;SDS011;9346;52.006;4.720;2024-03-17T06:54:32;10.60;;;5.97;;
18435;SDS011;9346;52.006;4.720;2024-03-17T06:56:58;11.97;;;6.33;;
18435;SDS011;9346;52.006;4.720;2024-03-17T06:59:27;11.13;;;6.27;;
18435;SDS011;9346;52.006;4.720;2024-03-17T07:01:54;9.90;;;5.93;;
18435;SDS011;9346;52.006;4.720;2024-03-17T07:04:20;13.00;;;6.53;;
18435;SDS011;9346;52.006;4.720;2024-03-17T07:06:47;8.60;;;5.13;;
18435;SDS011;9346;52.006;4.720;2024-03-17T07:09:15;9.80;;;5.83;;
18435;SDS011;9346;52.006;4.720;2024-03-17T07:11:42;13.67;;;6.10;;
18435;SDS011;9346;52.006;4.720;2024-03-17T07:14:09;9.93;;;6.13;;
18435;SDS011;9346;52.006;4.720;2024-03-17T07:16:37;12.23;;;6.57;;
18435;SDS011;9346;52.006;4.720;2024-03-17T07:19:04;13.20;;;7.13;;
18435;SDS011;9346;52.006;4.720;2024-03-17T07:21:31;11.37;;;5.93;;
18435;SDS011;9346;52.006;4.720;2024-03-17T07:23:57;10.10;;;5.73;;
18435;SDS011;9346;52.006;4.720;2024-03-17T07:26:24;10.03;;;6.10;;
18435;SDS011;9346;52.006;4.720;2024-03-17T07:28:51;12.43;;;6.70;;
18435;SDS011;9346;52.006;4.720;2024-03-17T07:31:18;9.97;;;5.63;;
18435;SDS011;9346;52.006;4.720;2024-03-17T07:33:46;9.90;;;5.97;;
18435;SDS011;9346;52.006;4.720;2024-03-17T07:36:13;9.07;;;5.67;;
18435;SDS011;9346;52.006;4.720;2024-03-17T07:38:40;11.43;;;6.27;;
18435;SDS011;9346;52.006;4.720;2024-03-17T07:41:07;12.23;;;7.77;;
18435;SDS011;9346;52.006;4.720;2024-03-17T07:43:35;9.70;;;5.80;;
18435;SDS011;9346;52.006;4.720;2024-03-17T07:46:03;11.67;;;6.60;;
18435;SDS011;9346;52.006;4.720;2024-03-17T07:48:32;11.60;;;6.70;;
18435;SDS011;9346;52.006;4.720;2024-03-17T07:51:02;11.70;;;5.77;;
18435;SDS011;9346;52.006;4.720;2024-03-17T07:53:29;15.10;;;6.60;;
18435;SDS011;9346;52.006;4.720;2024-03-17T07:55:57;13.10;;;6.23;;
18435;SDS011;9346;52.006;4.720;2024-03-17T07:58:25;12.20;;;6.90;;
18435;SDS011;9346;52.006;4.720;2024-03-17T08:00:51;10.47;;;5.83;;
18435;SDS011;9346;52.006;4.720;2024-03-17T08:03:18;16.20;;;5.93;;
18435;SDS011;9346;52.006;4.720;2024-03-17T08:05:47;15.93;;;6.20;;
18435;SDS011;9346;52.006;4.720;2024-03-17T08:08:16;9.30;;;5.83;;
18435;SDS011;9346;52.006;4.720;2024-03-17T08:10:43;13.13;;;6.80;;
18435;SDS011;9346;52.006;4.720;2024-03-17T08:13:10;12.93;;;7.03;;
18435;SDS011;9346;52.006;4.720;2024-03-17T08:15:38;11.63;;;6.33;;
18435;SDS011;9346;52.006;4.720;2024-03-17T08:18:05;10.53;;;6.53;;
18435;SDS011;9346;52.006;4.720;2024-03-17T08:20:35;10.63;;;6.13;;
18435;SDS011;9346;52.006;4.720;2024-03-17T08:23:03;12.60;;;5.97;;
18435;SDS011;9346;52.006;4.720;2024-03-17T08:25:32;13.67;;;6.00;;
18435;SDS011;9346;52.006;4.720;2024-03-17T08:27:59;10.60;;;6.53;;
18435;SDS011;9346;52.006;4.720;2024-03-17T08:30:25;10.83;;;6.87;;
18435;SDS011;9346;52.006;4.720;2024-03-17T08:32:53;9.30;;;5.97;;
18435;SDS011;9346;52.006;4.720;2024-03-17T08:35:20;10.90;;;6.00;;
18435;SDS011;9346;52.006;4.720;2024-03-17T08:37:47;13.53;;;6.30;;
18435;SDS011;9346;52.006;4.720;2024-03-17T08:40:14;14.00;;;6.67;;
18435;SDS011;9346;52.006;4.720;2024-03-17T08:42:42;14.37;;;6.67;;
18435;SDS011;9346;52.006;4.720;2024-03-17T08:45:09;17.43;;;6.87;;
18435;SDS011;9346;52.006;4.720;2024-03-17T08:47:36;12.83;;;5.97;;
18435;SDS011;9346;52.006;4.720;2024-03-17T08:50:03;13.37;;;6.60;;
18435;SDS011;9346;52.006;4.720;2024-03-17T08:52:32;11.13;;;6.23;;
18435;SDS011;9346;52.006;4.720;2024-03-17T08:54:59;9.57;;;5.77;;
18435;SDS011;9346;52.006;4.720;2024-03-17T08:57:28;11.30;;;7.23;;
18435;SDS011;9346;52.006;4.720;2024-03-17T08:59:56;9.87;;;7.10;;
18435;SDS011;9346;52.006;4.720;2024-03-17T09:02:23;12.00;;;6.43;;
18435;SDS011;9346;52.006;4.720;2024-03-17T09:04:50;11.83;;;5.90;;
18435;SDS011;9346;52.006;4.720;2024-03-17T09:07:16;10.53;;;6.90;;
18435;SDS011;9346;52.006;4.720;2024-03-17T09:09:43;13.90;;;7.30;;
18435;SDS011;9346;52.006;4.720;2024-03-17T09:12:12;13.67;;;6.50;;
18435;SDS011;9346;52.006;4.720;2024-03-17T09:14:39;12.43;;;6.33;;
18435;SDS011;9346;52.006;4.720;2024-03-17T09:17:08;12.20;;;6.20;;
18435;SDS011;9346;52.006;4.720;2024-03-17T09:19:34;9.87;;;5.90;;
18435;SDS011;9346;52.006;4.720;2024-03-17T09:22:01;12.13;;;6.80;;
18435;SDS011;9346;52.006;4.720;2024-03-17T09:24:28;10.00;;;6.60;;
18435;SDS011;9346;52.006;4.720;2024-03-17T09:26:54;14.43;;;6.83;;
18435;SDS011;9346;52.006;4.720;2024-03-17T09:29:21;16.53;;;6.70;;
18435;SDS011;9346;52.006;4.720;2024-03-17T09:31:49;12.03;;;6.43;;
18435;SDS011;9346;52.006;4.720;2024-03-17T09:34:18;9.83;;;6.27;;
18435;SDS011;9346;52.006;4.720;2024-03-17T09:36:44;13.20;;;7.30;;
18435;SDS011;9346;52.006;4.720;2024-03-17T09:39:12;9.27;;;5.43;;
18435;SDS011;9346;52.006;4.720;2024-03-17T09:41:39;11.63;;;6.03;;
18435;SDS011;9346;52.006;4.720;2024-03-17T09:44:09;10.83;;;6.20;;
18435;SDS011;9346;52.006;4.720;2024-03-17T09:46:39;10.80;;;5.73;;
18435;SDS011;9346;52.006;4.720;2024-03-17T09:49:08;10.63;;;6.50;;
18435;SDS011;9346;52.006;4.720;2024-03-17T09:51:42;10.07;;;6.03;;
18435;SDS011;9346;52.006;4.720;2024-03-17T09:54:14;11.23;;;6.50;;
18435;SDS011;9346;52.006;4.720;2024-03-17T09:56:44;9.07;;;5.50;;
18435;SDS011;9346;52.006;4.720;2024-03-17T09:59:10;10.10;;;6.60;;
18435;SDS011;9346;52.006;4.720;2024-03-17T10:01:37;9.60;;;6.00;;
18435;SDS011;9346;52.006;4.720;2024-03-17T10:04:04;10.03;;;5.57;;
18435;SDS011;9346;52.006;4.720;2024-03-17T10:06:34;7.30;;;5.10;;
18435;SDS011;9346;52.006;4.720;2024-03-17T10:09:15;9.23;;;6.20;;
18435;SDS011;9346;52.006;4.720;2024-03-17T10:11:46;9.70;;;5.47;;
18435;SDS011;9346;52.006;4.720;2024-03-17T10:14:16;9.37;;;5.37;;
18435;SDS011;9346;52.006;4.720;2024-03-17T10:16:43;8.90;;;5.77;;
18435;SDS011;9346;52.006;4.720;2024-03-17T10:19:11;8.20;;;4.87;;
18435;SDS011;9346;52.006;4.720;2024-03-17T10:21:40;9.43;;;4.93;;
18435;SDS011;9346;52.006;4.720;2024-03-17T10:24:10;8.03;;;5.07;;
18435;SDS011;9346;52.006;4.720;2024-03-17T10:26:40;10.37;;;6.00;;
18435;SDS011;9346;52.006;4.720;2024-03-17T10:31:51;9.53;;;5.70;;
18435;SDS011;9346;52.006;4.720;2024-03-17T10:34:18;9.97;;;5.47;;
18435;SDS011;9346;52.006;4.720;2024-03-17T10:36:45;11.13;;;6.03;;
18435;SDS011;9346;52.006;4.720;2024-03-17T10:42:00;11.13;;;5.83;;
18435;SDS011;9346;52.006;4.720;2024-03-17T10:44:28;11.30;;;5.77;;
18435;SDS011;9346;52.006;4.720;2024-03-17T10:46:56;10.80;;;5.77;;
18435;SDS011;9346;52.006;4.720;2024-03-17T10:49:28;8.67;;;5.57;;
18435;SDS011;9346;52.006;4.720;2024-03-17T10:51:57;9.73;;;5.43;;
18435;SDS011;9346;52.006;4.720;2024-03-17T10:54:25;7.17;;;4.77;;
18435;SDS011;9346;52.006;4.720;2024-03-17T10:56:56;13.83;;;6.47;;
18435;SDS011;9346;52.006;4.720;2024-03-17T10:59:26;8.63;;;5.73;;
18435;SDS011;9346;52.006;4.720;2024-03-17T11:02:04;9.20;;;4.97;;
18435;SDS011;9346;52.006;4.720;2024-03-17T11:04:43;9.30;;;5.80;;
18435;SDS011;9346;52.006;4.720;2024-03-17T11:07:11;12.97;;;5.53;;
18435;SDS011;9346;52.006;4.720;2024-03-17T11:09:44;8.60;;;5.60;;
18435;SDS011;9346;52.006;4.720;2024-03-17T11:21:07;13.13;;;5.60;;
18435;SDS011;9346;52.006;4.720;2024-03-17T11:23:54;10.73;;;5.10;;
18435;SDS011;9346;52.006;4.720;2024-03-17T11:26:26;11.20;;;5.63;;
18435;SDS011;9346;52.006;4.720;2024-03-17T11:28:54;8.20;;;5.23;;
18435;SDS011;9346;52.006;4.720;2024-03-17T11:31:41;7.93;;;5.23;;
18435;SDS011;9346;52.006;4.720;2024-03-17T11:34:30;9.13;;;5.23;;
18435;SDS011;9346;52.006;4.720;2024-03-17T11:37:00;6.43;;;4.90;;
18435;SDS011;9346;52.006;4.720;2024-03-17T11:42:15;6.40;;;4.83;;
18435;SDS011;9346;52.006;4.720;2024-03-17T11:44:42;7.70;;;4.70;;
18435;SDS011;9346;52.006;4.720;2024-03-17T11:47:10;8.27;;;4.60;;
18435;SDS011;9346;52.006;4.720;2024-03-17T11:49:37;11.20;;;5.57;;
18435;SDS011;9346;52.006;4.720;2024-03-17T11:52:04;7.43;;;5.13;;
18435;SDS011;9346;52.006;4.720;2024-03-17T11:54:34;5.37;;;4.20;;
18435;SDS011;9346;52.006;4.720;2024-03-17T11:57:02;9.40;;;4.60;;
18435;SDS011;9346;52.006;4.720;2024-03-17T11:59:31;7.03;;;4.60;;
18435;SDS011;9346;52.006;4.720;2024-03-17T12:01:57;8.73;;;4.70;;
18435;SDS011;9346;52.006;4.720;2024-03-17T12:04:26;10.10;;;4.70;;
18435;SDS011;9346;52.006;4.720;2024-03-17T12:06:52;8.60;;;4.97;;
18435;SDS011;9346;52.006;4.720;2024-03-17T12:09:21;6.77;;;4.37;;
18435;SDS011;9346;52.006;4.720;2024-03-17T12:11:49;9.30;;;4.23;;
18435;SDS011;9346;52.006;4.720;2024-03-17T12:14:17;9.97;;;5.27;;
18435;SDS011;9346;52.006;4.720;2024-03-17T12:16:48;6.90;;;4.00;;
18435;SDS011;9346;52.006;4.720;2024-03-17T12:19:16;8.57;;;4.53;;
18435;SDS011;9346;52.006;4.720;2024-03-17T12:21:45;6.17;;;3.50;;
18435;SDS011;9346;52.006;4.720;2024-03-17T12:24:15;9.03;;;4.03;;
18435;SDS011;9346;52.006;4.720;2024-03-17T12:26:43;7.03;;;3.67;;
18435;SDS011;9346;52.006;4.720;2024-03-17T12:29:26;6.27;;;3.90;;
18435;SDS011;9346;52.006;4.720;2024-03-17T12:31:55;7.30;;;3.90;;
18435;SDS011;9346;52.006;4.720;2024-03-17T12:34:24;7.07;;;4.20;;
18435;SDS011;9346;52.006;4.720;2024-03-17T12:36:53;7.63;;;3.87;;
18435;SDS011;9346;52.006;4.720;2024-03-17T12:39:21;4.70;;;3.50;;
18435;SDS011;9346;52.006;4.720;2024-03-17T12:42:01;8.63;;;3.87;;
18435;SDS011;9346;52.006;4.720;2024-03-17T12:44:29;7.43;;;4.67;;
18435;SDS011;9346;52.006;4.720;2024-03-17T12:46:55;5.83;;;3.83;;
18435;SDS011;9346;52.006;4.720;2024-03-17T12:49:22;5.73;;;3.50;;
18435;SDS011;9346;52.006;4.720;2024-03-17T12:51:50;8.03;;;4.03;;
18435;SDS011;9346;52.006;4.720;2024-03-17T12:54:21;6.03;;;3.63;;
18435;SDS011;9346;52.006;4.720;2024-03-17T12:56:48;6.17;;;3.27;;
18435;SDS011;9346;52.006;4.720;2024-03-17T12:59:39;9.53;;;4.10;;
18435;SDS011;9346;52.006;4.720;2024-03-17T13:02:24;7.23;;;4.17;;
18435;SDS011;9346;52.006;4.720;2024-03-17T13:05:06;8.20;;;3.43;;
18435;SDS011;9346;52.006;4.720;2024-03-17T13:07:43;4.73;;;2.97;;
18435;SDS011;9346;52.006;4.720;2024-03-17T13:10:13;6.73;;;3.60;;
18435;SDS011;9346;52.006;4.720;2024-03-17T13:12:41;6.13;;;3.40;;
18435;SDS011;9346;52.006;4.720;2024-03-17T13:15:08;4.70;;;2.80;;
18435;SDS011;9346;52.006;4.720;2024-03-17T13:17:37;4.37;;;3.03;;
18435;SDS011;9346;52.006;4.720;2024-03-17T13:20:05;6.40;;;2.47;;
18435;SDS011;9346;52.006;4.720;2024-03-17T13:22:36;5.93;;;3.63;;
18435;SDS011;9346;52.006;4.720;2024-03-17T13:25:05;8.67;;;2.50;;
18435;SDS011;9346;52.006;4.720;2024-03-17T13:27:37;5.27;;;3.20;;
18435;SDS011;9346;52.006;4.720;2024-03-17T13:30:04;4.97;;;2.70;;
18435;SDS011;9346;52.006;4.720;2024-03-17T13:32:32;6.23;;;3.23;;
18435;SDS011;9346;52.006;4.720;2024-03-17T13:34:58;5.53;;;3.30;;
18435;SDS011;9346;52.006;4.720;2024-03-17T13:37:25;8.53;;;2.67;;
18435;SDS011;9346;52.006;4.720;2024-03-17T13:39:52;5.03;;;3.30;;
18435;SDS011;9346;52.006;4.720;2024-03-17T13:42:18;6.20;;;3.13;;
18435;SDS011;9346;52.006;4.720;2024-03-17T13:44:47;5.87;;;2.73;;
18435;SDS011;9346;52.006;4.720;2024-03-17T13:47:14;7.00;;;3.20;;
18435;SDS011;9346;52.006;4.720;2024-03-17T13:49:42;7.17;;;3.90;;
18435;SDS011;9346;52.006;4.720;2024-03-17T13:52:09;5.37;;;2.93;;
18435;SDS011;9346;52.006;4.720;2024-03-17T13:54:36;5.43;;;3.37;;
18435;SDS011;9346;52.006;4.720;2024-03-17T13:57:03;6.17;;;3.17;;
18435;SDS011;9346;52.006;4.720;2024-03-17T13:59:30;6.40;;;3.00;;
18435;SDS011;9346;52.006;4.720;2024-03-17T14:01:59;7.20;;;2.87;;
18435;SDS011;9346;52.006;4.720;2024-03-17T14:04:27;4.23;;;2.97;;
18435;SDS011;9346;52.006;4.720;2024-03-17T14:06:53;4.70;;;3.03;;
18435;SDS011;9346;52.006;4.720;2024-03-17T14:09:20;7.03;;;3.63;;
18435;SDS011;9346;52.006;4.720;2024-03-17T14:11:47;8.33;;;2.97;;
18435;SDS011;9346;52.006;4.720;2024-03-17T14:14:15;8.17;;;3.63;;
18435;SDS011;9346;52.006;4.720;2024-03-17T14:16:42;4.50;;;2.63;;
18435;SDS011;9346;52.006;4.720;2024-03-17T14:19:11;6.17;;;2.93;;
18435;SDS011;9346;52.006;4.720;2024-03-17T14:21:37;4.43;;;3.00;;
18435;SDS011;9346;52.006;4.720;2024-03-17T14:24:04;3.10;;;2.80;;
18435;SDS011;9346;52.006;4.720;2024-03-17T14:26:32;4.47;;;2.90;;
18435;SDS011;9346;52.006;4.720;2024-03-17T14:29:00;7.70;;;2.90;;
18435;SDS011;9346;52.006;4.720;2024-03-17T14:31:29;6.50;;;2.73;;
18435;SDS011;9346;52.006;4.720;2024-03-17T14:33:56;5.60;;;2.97;;
18435;SDS011;9346;52.006;4.720;2024-03-17T14:36:25;4.73;;;2.73;;
18435;SDS011;9346;52.006;4.720;2024-03-17T14:38:54;4.13;;;3.00;;
18435;SDS011;9346;52.006;4.720;2024-03-17T14:41:21;5.10;;;2.60;;
18435;SDS011;9346;52.006;4.720;2024-03-17T14:43:47;7.20;;;3.70;;
18435;SDS011;9346;52.006;4.720;2024-03-17T14:46:14;8.20;;;2.50;;
18435;SDS011;9346;52.006;4.720;2024-03-17T14:48:42;6.63;;;2.80;;
18435;SDS011;9346;52.006;4.720;2024-03-17T14:51:09;6.87;;;3.27;;
18435;SDS011;9346;52.006;4.720;2024-03-17T14:53:38;5.37;;;3.53;;
18435;SDS011;9346;52.006;4.720;2024-03-17T14:56:13;10.23;;;3.23;;
18435;SDS011;9346;52.006;4.720;2024-03-17T14:58:40;6.77;;;2.87;;
18435;SDS011;9346;52.006;4.720;2024-03-17T15:01:06;6.57;;;3.40;;
18435;SDS011;9346;52.006;4.720;2024-03-17T15:03:34;4.83;;;3.10;;
18435;SDS011;9346;52.006;4.720;2024-03-17T15:06:00;4.00;;;2.40;;
18435;SDS011;9346;52.006;4.720;2024-03-17T15:08:29;4.33;;;2.77;;
18435;SDS011;9346;52.006;4.720;2024-03-17T15:10:58;5.23;;;2.90;;
18435;SDS011;9346;52.006;4.720;2024-03-17T15:13:25;4.10;;;3.03;;
18435;SDS011;9346;52.006;4.720;2024-03-17T15:15:52;4.20;;;3.23;;
18435;SDS011;9346;52.006;4.720;2024-03-17T15:18:19;7.17;;;3.47;;